Decoded Metar for LFBL (LIMOGES in FRANCE) (IATA:LIG) | Meteo·Mobile Aviation Weather
aviador You're here:

LFBL Decoded Metar

LIMOGES in FRANCE
Report Time2018-12-16 18:00:00
UTC Time2018-12-16 18:28:02
Flight Rules ifr IFR
Wind200° at 07 kt
W.Decomp.*RWY 21: 6.9 kt HW 1.1 kt LCW
W.Rank200° ranks 20
Current wind is below 200° avg. (7.8)
Visibility9999 m
Phenomena:Shower Rain
Clouds:Broken 004 Hf
Overcast 006 Hf
Few CB 012 Hf
Expected CloudBase > 400 ft AGL from Temp-Dew spread
Ceiling600 ft
Temp07°C (ISA -5)
Dew Point06°C (93% RH)
AAT3.5°C
QNH1013 hPa
Density Alt807 ft
Elevation1,319 ft
Report Wrong Elevation
Raw Report
LFBL 161800Z AUTO 20007KT 9999 OVC006/// ///TCU 07/06 Q1013 TEMPO
27012KT 3000 SHRA BKN004 FEW012CB BKN015TCU=

Extra information for LFBL:More info

Metar Taf Metar & Taf Last 4 Metars F.Rules Stats Wind Profile Meteogram Temp Stats Airport Information Weather charts Add Link Nearby VenuesMetar ALERT Operation Metar Decoded Social comments